createdAt,value
2022-10-23T00:03:00.378Z,23.13
2022-10-23T00:08:05.812Z,23.93
2022-10-23T00:13:09.891Z,22.00
2022-10-23T00:18:12.892Z,22.50
2022-10-23T00:23:17.919Z,24.17
2022-10-23T00:28:21.001Z,24.83
2022-10-23T00:33:24.243Z,23.40
2022-10-23T00:38:27.684Z,23.70
2022-10-23T00:43:31.941Z,23.70
2022-10-23T00:48:35.184Z,23.10
2022-10-23T00:53:38.881Z,23.90
2022-10-23T00:58:41.901Z,23.83
2022-10-23T01:03:45.001Z,24.73
2022-10-23T01:09:08.922Z,24.80
2022-10-23T01:14:21.102Z,24.93
2022-10-23T01:19:43.330Z,24.13
2022-10-23T01:25:24.242Z,24.27
2022-10-23T01:30:27.870Z,25.03
2022-10-23T01:35:46.320Z,23.67
2022-10-23T01:40:56.290Z,22.83
2022-10-23T01:46:06.659Z,23.60
2022-10-23T01:51:14.528Z,24.77
2022-10-23T01:56:23.268Z,26.23
2022-10-23T02:01:30.282Z,24.63
2022-10-23T02:06:33.871Z,27.07
2022-10-23T02:11:49.851Z,27.53
2022-10-23T02:16:58.380Z,24.67
2022-10-23T02:42:44.361Z,25.67
2022-10-23T02:48:02.151Z,26.47
2022-10-23T02:53:20.230Z,26.47
2022-10-23T02:58:44.025Z,25.57
2022-10-23T03:03:55.194Z,24.50
2022-10-23T03:09:06.586Z,26.03
2022-10-23T03:14:10.359Z,25.97
2022-10-23T03:19:13.585Z,25.73
2022-10-23T03:31:10.940Z,24.47
2022-10-23T03:36:14.311Z,23.50
2022-10-23T03:41:17.591Z,23.07
2022-10-23T03:46:20.599Z,23.23
2022-10-23T03:51:23.818Z,21.80
2022-10-23T04:03:20.580Z,20.03
2022-10-23T04:08:23.933Z,19.43
2022-10-23T04:13:26.980Z,18.67
2022-10-23T04:18:30.238Z,20.60
2022-10-23T04:23:33.511Z,21.13
2022-10-23T04:28:36.819Z,19.57
2022-10-23T04:33:39.830Z,19.00
2022-10-23T04:38:42.846Z,19.00
2022-10-23T04:43:46.161Z,18.47
2022-10-23T04:48:49.315Z,19.23
2022-10-23T04:53:52.320Z,18.50
2022-10-23T04:58:55.520Z,18.83
2022-10-23T05:03:58.597Z,20.23
2022-10-23T05:09:01.627Z,19.13
2022-10-23T05:14:05.168Z,19.30
2022-10-23T05:19:14.060Z,19.47
2022-10-23T05:24:18.652Z,18.77
2022-10-23T05:29:22.571Z,19.10
2022-10-23T05:34:26.994Z,18.00
2022-10-23T05:39:30.629Z,20.27
2022-10-23T05:44:33.642Z,18.83
2022-10-23T05:49:37.187Z,19.83
2022-10-23T05:54:40.681Z,18.53
2022-10-23T05:59:44.401Z,20.53
2022-10-23T06:04:47.625Z,18.73
2022-10-23T06:09:50.582Z,19.70
2022-10-23T06:14:53.640Z,18.83
2022-10-23T06:20:01.210Z,18.93
2022-10-23T06:25:05.321Z,18.93
2022-10-23T06:30:09.912Z,19.63
2022-10-23T06:35:13.201Z,18.53
2022-10-23T06:40:16.563Z,19.63
2022-10-23T06:45:20.221Z,19.63
2022-10-23T06:50:23.751Z,20.50
2022-10-23T06:55:27.025Z,21.67
2022-10-23T07:00:30.384Z,20.20
2022-10-23T07:05:33.711Z,21.63
2022-10-23T07:10:46.030Z,20.63
2022-10-23T07:15:49.262Z,20.03
2022-10-23T07:20:58.931Z,21.67
2022-10-23T07:26:11.873Z,22.70
2022-10-23T07:31:17.211Z,18.77
2022-10-23T07:36:20.679Z,20.37
2022-10-23T07:41:23.751Z,18.80
2022-10-23T07:46:26.990Z,21.40
2022-10-23T07:51:29.932Z,20.87
2022-10-23T07:56:33.336Z,19.63
2022-10-23T08:01:39.089Z,20.27
2022-10-23T08:06:42.380Z,22.60
2022-10-23T08:11:45.462Z,21.47
2022-10-23T08:16:48.705Z,22.03
2022-10-23T08:21:55.072Z,21.30
2022-10-23T08:26:59.109Z,24.10
2022-10-23T08:32:02.506Z,21.80
2022-10-23T08:37:06.436Z,21.10
2022-10-23T08:42:20.941Z,21.60
2022-10-23T08:47:37.882Z,23.77
2022-10-23T08:53:03.573Z,23.00
2022-10-23T08:58:37.505Z,22.77
2022-10-23T09:03:44.983Z,24.77
2022-10-23T09:09:05.022Z,22.13
2022-10-23T09:14:45.392Z,23.40
2022-10-23T09:19:51.480Z,22.77
2022-10-23T09:24:54.613Z,22.37
2022-10-23T09:29:59.731Z,22.63
2022-10-23T09:35:03.829Z,21.50
2022-10-23T09:40:30.511Z,21.43
2022-10-23T09:45:35.541Z,20.97
2022-10-23T09:50:42.844Z,23.47
2022-10-23T09:55:56.060Z,22.23
2022-10-23T10:00:59.578Z,22.50
2022-10-23T10:06:06.665Z,22.20
2022-10-23T10:11:16.690Z,22.17
2022-10-23T10:21:52.851Z,21.70
2022-10-23T10:27:30.902Z,22.37
2022-10-23T10:33:09.609Z,23.43
2022-10-23T10:38:37.111Z,22.83
2022-10-23T10:44:18.321Z,20.13
2022-10-23T10:49:36.331Z,18.07
2022-10-23T10:55:12.074Z,18.07
2022-10-23T11:00:20.709Z,17.27
2022-10-23T11:05:37.961Z,16.37
2022-10-23T11:10:46.181Z,14.03
2022-10-23T11:15:50.033Z,14.30
2022-10-23T11:21:08.813Z,13.83
2022-10-23T11:26:30.031Z,14.73
2022-10-23T11:31:55.393Z,14.67
2022-10-23T11:37:05.111Z,15.10
2022-10-23T11:42:08.140Z,14.97
2022-10-23T11:47:39.676Z,14.57
2022-10-23T11:53:12.888Z,14.77
2022-10-23T11:58:24.701Z,14.03
2022-10-23T12:03:56.750Z,14.33
2022-10-23T12:09:09.720Z,14.23
2022-10-23T12:14:42.774Z,13.07
2022-10-23T12:19:55.465Z,13.87
2022-10-23T12:24:58.709Z,14.50
2022-10-23T12:30:24.913Z,13.90
2022-10-23T12:35:38.449Z,14.40
2022-10-23T12:40:45.936Z,14.95
2022-10-23T12:45:49.962Z,14.88
2022-10-23T12:50:56.622Z,13.80
2022-10-23T12:56:02.793Z,12.27
2022-10-23T13:01:08.214Z,7.90
2022-10-23T13:06:12.962Z,7.88
2022-10-23T13:11:19.636Z,7.87
2022-10-23T13:16:27.542Z,7.33
2022-10-23T13:21:31.464Z,7.90
2022-10-23T13:26:45.791Z,8.60
2022-10-23T13:31:54.434Z,8.83
2022-10-23T13:37:02.101Z,9.50
2022-10-23T13:42:15.568Z,9.27
2022-10-23T13:47:20.732Z,9.17
2022-10-23T13:52:24.432Z,10.10
2022-10-23T13:57:28.099Z,10.07
2022-10-23T14:02:31.610Z,10.33
2022-10-23T14:07:37.921Z,9.87
2022-10-23T14:12:43.045Z,12.87
2022-10-23T14:17:49.007Z,11.40
2022-10-23T14:22:55.097Z,11.23
2022-10-23T14:28:01.146Z,10.20
2022-10-23T14:33:09.382Z,10.90
2022-10-23T14:38:15.147Z,13.43
2022-10-23T14:43:20.648Z,21.27
2022-10-23T14:48:26.774Z,21.13
2022-10-23T14:53:34.256Z,19.30
2022-10-23T14:58:45.966Z,20.63
2022-10-23T15:03:55.366Z,19.30
2022-10-23T15:08:59.401Z,16.47
2022-10-23T15:14:05.317Z,12.30
2022-10-23T15:19:17.163Z,11.33
2022-10-23T15:24:22.767Z,10.93
2022-10-23T15:29:26.719Z,11.23
2022-10-23T15:34:32.273Z,11.33
2022-10-23T15:39:37.720Z,10.80
2022-10-23T15:44:42.142Z,10.67
2022-10-23T15:49:47.479Z,10.90
2022-10-23T15:54:50.879Z,11.93
2022-10-23T15:59:56.739Z,13.00
2022-10-23T16:05:00.145Z,26.40
2022-10-23T16:10:04.478Z,27.27
2022-10-23T16:15:08.731Z,21.87
2022-10-23T16:20:12.271Z,22.87
2022-10-23T16:25:16.881Z,22.33
2022-10-23T16:30:22.826Z,25.70
2022-10-23T16:35:36.093Z,30.67
2022-10-23T16:40:40.688Z,43.33
2022-10-23T16:45:44.909Z,48.83
2022-10-23T16:50:48.385Z,27.73
2022-10-23T16:55:51.962Z,25.43
2022-10-23T17:01:08.621Z,24.70
2022-10-23T17:06:14.581Z,22.30
2022-10-23T17:11:28.690Z,16.47
2022-10-23T17:16:53.311Z,16.17
2022-10-23T17:21:58.790Z,18.53
2022-10-23T17:27:06.189Z,18.47
2022-10-23T17:32:12.174Z,21.83
2022-10-23T17:37:25.485Z,23.73
2022-10-23T17:42:30.505Z,19.60
2022-10-23T17:47:35.911Z,17.10
2022-10-23T17:52:41.906Z,15.70
2022-10-23T17:57:46.761Z,16.33
2022-10-23T19:13:14.251Z,16.07
2022-10-23T19:18:21.614Z,16.10
2022-10-23T19:23:30.338Z,16.97
2022-10-23T19:28:39.639Z,16.40
2022-10-23T19:33:47.690Z,17.43
2022-10-23T19:38:56.642Z,20.97
2022-10-23T19:44:11.933Z,18.93
2022-10-23T19:49:42.308Z,20.70
2022-10-23T19:55:15.001Z,25.87
2022-10-23T20:00:45.223Z,26.20
2022-10-23T20:12:18.331Z,20.70
2022-10-23T20:17:43.976Z,19.27
2022-10-23T20:22:55.318Z,17.80
2022-10-23T20:28:26.875Z,19.07
2022-10-23T20:33:41.241Z,20.63
2022-10-23T20:38:53.081Z,18.47
2022-10-23T20:50:11.814Z,21.13
2022-10-23T21:13:50.302Z,26.27
2022-10-23T21:25:06.893Z,22.53
2022-10-23T21:30:44.039Z,21.90
2022-10-23T21:35:58.252Z,22.53
2022-10-23T21:41:35.688Z,23.73
2022-10-23T21:46:48.481Z,24.70
2022-10-23T21:51:55.459Z,20.27
2022-10-23T21:58:04.333Z,21.93
2022-10-23T22:03:07.742Z,21.67
2022-10-23T22:08:11.403Z,21.87
2022-10-23T22:13:14.991Z,22.90
2022-10-23T22:18:18.401Z,21.83
2022-10-23T22:23:22.099Z,21.60
2022-10-23T22:28:26.051Z,23.27
2022-10-23T22:33:32.205Z,21.33
2022-10-23T22:38:35.859Z,23.83
2022-10-23T22:43:39.432Z,22.83
2022-10-23T22:48:43.817Z,24.53
2022-10-23T22:53:47.841Z,22.97
2022-10-23T22:58:52.042Z,24.53
2022-10-23T23:03:58.193Z,25.87
2022-10-23T23:09:04.771Z,24.63
2022-10-23T23:14:08.211Z,24.07
2022-10-23T23:19:12.729Z,24.37
2022-10-23T23:24:16.119Z,23.47
2022-10-23T23:29:19.839Z,25.93
2022-10-23T23:34:23.551Z,25.73
2022-10-23T23:39:29.010Z,28.83
2022-10-23T23:44:32.542Z,25.80
2022-10-23T23:49:35.926Z,25.23
2022-10-23T23:54:39.379Z,25.17
2022-10-23T23:59:43.261Z,23.87
